Terminal Aerodrome Forecast
Issued by NWS

Home | Current Version | Previous Version | Text Only | Print | Product List | Glossary On
Versions: 1 2 3 4 5 6 7 8 9 10 11 12 13 14
000
FTUS42 KILM 151129
TAFCRE
TAF
KCRE 151129Z 1512/1612 24009KT P6SM SCT150 BKN200
     FM160200 31005KT P6SM BKN140
     FM160600 36003KT P6SM SCT180 BKN250=

USA.gov is the U.S. government's official web portal to all federal, state and local government web resources and services.